Beaver Dams, New York
Current Conditions -  °F | °C
As of 4:53 PM on Friday 24 Oct 2014 (Local Time) from KELM Reporting Station
Clear Clear  
Wind Chill: 63°   Ceiling: Unl
Heat Index: 63°   Visibility: 10mi
Dew Point: 30°   Wind: 6mph
Humidity: 29%   Direction: NA
Pressure: 29.89"   Gusts: NA
Location:  42.29°N, 76.96°W
Report Text: KELM 242053Z VRB05KT 10SM CLR 17/M01 A2989 RMK AO2 SLP122 T01721011 55001
Loading
Personal Weather Stations






























Interactive Weather Map
Tropical Storm Tracking
New forecast layout! Learn more

10-Day Weather Forecast

Advertisements
Track Severe Weather on mobile